Time;durP1;ratioP1;P1;durP2;ratioP2;P2;SDS_P1;SDS_P2;PMS_P1;PMS_P2;Temp;Humidity;BMP_temperature;BMP_pressure;BME280_temperature;BME280_humidity;BME280_pressure;Samples;Min_cycle;Max_cycle;Signal;HPM_P1;HPM_P2
2022/10/03 00:02:44;;;;;;;9.05;3.10;;;;;;;14.20;100.00;99850.72;5008851;28;19965;-79
2022/10/03 00:05:41;;;;;;;7.00;3.17;;;;;;;14.29;100.00;99857.75;5014782;28;20041;-79
2022/10/03 00:08:24;;;;;;;9.15;3.40;;;;;;;14.12;100.00;99856.00;5008155;28;20113;-78
2022/10/03 00:10:56;;;;;;;11.73;3.33;;;;;;;13.96;100.00;99855.88;5014525;28;20022;-79
2022/10/03 00:13:31;;;;;;;6.65;3.35;;;;;;;14.05;100.00;99857.63;5014400;28;20037;-78
2022/10/03 00:16:38;;;;;;;6.70;3.13;;;;;;;13.98;100.00;99875.16;5011229;28;20022;-78
2022/10/03 00:19:27;;;;;;;6.22;3.53;;;;;;;14.09;100.00;99856.31;5002794;28;20050;-78
2022/10/03 00:22:15;;;;;;;9.32;3.90;;;;;;;13.67;100.00;99868.63;5010187;28;20037;-78
2022/10/03 00:24:43;;;;;;;9.30;4.72;;;;;;;13.57;100.00;99870.56;5014181;28;20463;-79
2022/10/03 00:27:14;;;;;;;10.23;4.63;;;;;;;13.71;100.00;99862.88;5013691;28;20034;-78
2022/10/03 00:29:47;;;;;;;11.15;4.65;;;;;;;13.40;100.00;99870.44;5014062;28;20033;-78
2022/10/03 00:32:51;;;;;;;8.60;5.15;;;;;;;13.49;100.00;99863.38;4995785;28;20069;-78
2022/10/03 00:35:34;;;;;;;6.72;4.75;;;;;;;13.57;100.00;99865.25;5012954;28;20081;-79
2022/10/03 00:38:18;;;;;;;9.38;4.75;;;;;;;13.68;100.00;99868.47;5010277;28;20042;-77
2022/10/03 00:40:55;;;;;;;8.77;5.07;;;;;;;13.83;100.00;99866.13;5010537;28;20029;-78
2022/10/03 00:43:55;;;;;;;11.13;4.60;;;;;;;13.80;100.00;99864.59;5009822;28;20545;-79
2022/10/03 00:46:50;;;;;;;10.13;5.28;;;;;;;13.81;100.00;99862.78;5012393;28;20042;-79
2022/10/03 00:49:50;;;;;;;7.60;4.75;;;;;;;13.91;100.00;99869.63;5007936;28;20045;-79
2022/10/03 00:52:51;;;;;;;9.93;4.68;;;;;;;13.98;100.00;99867.19;5012222;28;20705;-80
2022/10/03 00:55:36;;;;;;;11.57;4.53;;;;;;;13.89;100.00;99866.31;5012788;28;20068;-79
2022/10/03 00:58:23;;;;;;;10.45;4.55;;;;;;;13.94;100.00;99873.81;5009969;28;20030;-79
2022/10/03 01:00:50;;;;;;;9.68;3.85;;;;;;;13.92;100.00;99870.47;5013111;28;20037;-78
2022/10/03 01:03:43;;;;;;;9.82;4.03;;;;;;;13.96;100.00;99878.97;5012571;28;20038;-78
2022/10/03 01:06:21;;;;;;;6.93;3.83;;;;;;;13.65;100.00;99879.41;5011225;28;20356;-77
2022/10/03 01:09:16;;;;;;;7.55;3.92;;;;;;;13.39;100.00;99879.38;5013296;28;20030;-79
2022/10/03 01:11:52;;;;;;;8.55;3.38;;;;;;;13.30;100.00;99872.34;4979130;28;20049;-79
2022/10/03 01:14:37;;;;;;;12.43;4.80;;;;;;;13.49;100.00;99879.25;5013106;28;20064;-79
2022/10/03 01:17:10;;;;;;;8.00;3.80;;;;;;;13.59;100.00;99889.81;5010036;28;20044;-80
2022/10/03 01:20:07;;;;;;;6.25;3.67;;;;;;;13.72;100.00;99880.47;5012889;28;20439;-81
2022/10/03 01:23:01;;;;;;;5.82;3.30;;;;;;;13.80;100.00;99871.72;5010039;28;20395;-79
2022/10/03 01:25:36;;;;;;;12.85;3.72;;;;;;;13.85;100.00;99877.38;5009658;28;20041;-79
2022/10/03 01:31:15;;;;;;;5.25;3.28;;;;;;;13.68;100.00;99878.25;5010634;28;20048;-78
2022/10/03 01:33:47;;;;;;;8.00;3.53;;;;;;;13.67;100.00;99881.88;5008287;28;20121;-77
2022/10/03 01:36:50;;;;;;;5.30;3.10;;;;;;;13.65;100.00;99883.88;5012146;28;20033;-79
2022/10/03 01:39:41;;;;;;;7.68;3.20;;;;;;;13.76;100.00;99888.94;5011385;28;20050;-80
2022/10/03 01:42:13;;;;;;;;;;;;;;;13.78;100.00;99884.31;5011019;28;20144;-80
2022/10/03 01:45:06;;;;;;;6.50;3.28;;;;;;;13.66;100.00;99885.56;5012324;28;19925;-80
2022/10/03 01:47:37;;;;;;;8.18;3.30;;;;;;;13.69;100.00;99893.19;5009754;28;20193;-80
2022/10/03 01:50:37;;;;;;;6.93;4.20;;;;;;;13.43;100.00;99891.31;5012593;28;20036;-80
2022/10/03 01:53:18;;;;;;;7.15;3.45;;;;;;;13.21;100.00;99891.78;5009388;28;20042;-79
2022/10/03 01:56:02;;;;;;;7.25;3.35;;;;;;;13.03;100.00;99883.78;5012473;28;20053;-80
2022/10/03 01:58:35;;;;;;;7.35;3.80;;;;;;;13.11;100.00;99888.34;5008096;28;20037;-80
2022/10/03 02:01:19;;;;;;;5.13;3.10;;;;;;;13.24;100.00;99888.00;5012691;28;20410;-80
2022/10/03 02:04:23;;;;;;;6.90;3.30;;;;;;;13.38;100.00;99888.28;4994267;28;20049;-80
2022/10/03 02:07:19;;;;;;;5.20;2.83;;;;;;;13.48;100.00;99883.75;4960524;28;20042;-80
2022/10/03 02:09:56;;;;;;;16.55;3.95;;;;;;;13.44;100.00;99879.72;5011139;28;20499;-81
2022/10/03 02:12:34;;;;;;;8.70;2.85;;;;;;;13.39;100.00;99882.00;5012110;28;20144;-80
2022/10/03 02:15:17;;;;;;;7.13;3.30;;;;;;;13.40;100.00;99891.63;5008398;28;20030;-79
2022/10/03 02:17:56;;;;;;;5.05;2.83;;;;;;;13.41;100.00;99888.00;5011675;28;20088;-80
2022/10/03 02:20:47;;;;;;;7.25;3.30;;;;;;;13.40;100.00;99891.63;5011839;28;20034;-78
2022/10/03 02:23:30;;;;;;;9.13;3.67;;;;;;;13.37;100.00;99902.53;5006157;28;20038;-78
2022/10/03 02:26:04;;;;;;;8.15;2.90;;;;;;;13.23;100.00;99894.28;5007693;28;20108;-80
2022/10/03 02:29:02;;;;;;;4.55;3.10;;;;;;;13.27;100.00;99896.47;5008945;28;20133;-78
2022/10/03 02:31:58;;;;;;;4.95;3.40;;;;;;;13.20;100.00;99891.94;4987808;28;20049;-79
2022/10/03 02:34:45;;;;;;;6.10;3.55;;;;;;;13.22;100.00;99898.75;4993720;28;20053;-79
2022/10/03 02:37:26;;;;;;;5.43;3.08;;;;;;;13.19;100.00;99899.06;5005754;28;20037;-79
2022/10/03 02:39:57;;;;;;;6.85;4.03;;;;;;;13.03;100.00;99893.56;5011478;28;20118;-79
2022/10/03 02:42:48;;;;;;;9.07;4.00;;;;;;;12.81;100.00;99899.28;5007160;28;20065;-79
2022/10/03 02:45:53;;;;;;;7.80;4.05;;;;;;;12.94;100.00;99894.47;5009974;28;20052;-79
2022/10/03 02:48:55;;;;;;;9.50;3.58;;;;;;;13.06;100.00;99898.56;5010598;28;20030;-79
2022/10/03 02:51:47;;;;;;;10.57;3.80;;;;;;;13.17;100.00;99903.69;5011049;28;20025;-79
2022/10/03 02:54:28;;;;;;;8.48;3.80;;;;;;;13.26;100.00;99908.06;5009349;28;20124;-79
2022/10/03 02:57:21;;;;;;;7.15;3.50;;;;;;;13.32;100.00;99915.41;4989449;28;20398;-80
2022/10/03 03:00:03;;;;;;;5.93;3.75;;;;;;;13.37;100.00;99907.84;5010213;28;20033;-80
2022/10/03 03:02:50;;;;;;;5.00;3.50;;;;;;;13.37;100.00;99907.03;5007706;28;20117;-79
2022/10/03 03:05:50;;;;;;;8.13;3.33;;;;;;;13.41;100.00;99909.22;5010936;28;20065;-80
2022/10/03 03:08:40;;;;;;;5.47;3.60;;;;;;;13.44;100.00;99919.50;5009688;28;20045;-79
2022/10/03 03:11:08;;;;;;;8.00;3.53;;;;;;;13.44;100.00;99908.91;5008505;28;20034;-79
2022/10/03 03:13:39;;;;;;;5.25;3.35;;;;;;;13.16;100.00;99909.97;5011019;28;20036;-79
2022/10/03 03:16:31;;;;;;;4.90;3.08;;;;;;;13.15;100.00;99910.94;4993539;28;20042;-79
2022/10/03 03:19:35;;;;;;;5.50;3.38;;;;;;;13.16;100.00;99915.25;5007060;28;20586;-79
2022/10/03 03:22:24;;;;;;;6.10;2.78;;;;;;;13.19;100.00;99912.31;5007721;28;20384;-79
2022/10/03 03:25:11;;;;;;;4.88;3.20;;;;;;;12.83;100.00;99914.06;5010739;28;20209;-79
2022/10/03 03:27:48;;;;;;;6.07;3.22;;;;;;;12.78;100.00;99918.97;5010676;28;20075;-80
2022/10/03 03:30:31;;;;;;;7.03;3.83;;;;;;;12.45;100.00;99914.25;5011246;28;20520;-79
2022/10/03 03:33:38;;;;;;;7.68;4.40;;;;;;;12.43;100.00;99917.03;5002840;28;20038;-80
2022/10/03 03:36:15;;;;;;;5.45;3.50;;;;;;;12.53;100.00;99915.19;5008225;28;20022;-79
2022/10/03 03:39:11;;;;;;;9.00;3.50;;;;;;;12.61;100.00;99917.91;5010555;28;20091;-78
2022/10/03 03:41:58;;;;;;;6.22;4.07;;;;;;;12.62;100.00;99910.81;5008269;28;20077;-79
2022/10/03 03:44:47;;;;;;;7.20;3.92;;;;;;;12.68;100.00;99911.06;5006755;28;20030;-78
2022/10/03 03:48:23;;;;;;;9.70;4.90;;;;;;;12.78;100.00;99912.84;4979848;28;20479;-78
2022/10/03 03:51:10;;;;;;;7.80;4.15;;;;;;;12.88;100.00;99921.56;4884451;29;20149;-78
2022/10/03 03:53:44;;;;;;;7.07;3.85;;;;;;;12.96;100.00;99921.66;4910108;29;20052;-78
2022/10/03 03:56:25;;;;;;;5.53;3.97;;;;;;;13.02;100.00;99928.97;4919271;29;20433;-78
2022/10/03 03:59:02;;;;;;;7.25;4.63;;;;;;;12.97;100.00;99933.88;4921039;29;20044;-79
2022/10/03 04:01:40;;;;;;;8.40;3.95;;;;;;;13.03;100.00;99941.25;4925501;29;20112;-79
2022/10/03 04:04:34;;;;;;;8.80;4.45;;;;;;;13.05;100.00;99928.69;4907962;29;20048;-77
2022/10/03 04:07:24;;;;;;;8.65;4.75;;;;;;;12.97;100.00;99926.78;4908507;29;20041;-80
2022/10/03 04:10:26;;;;;;;5.82;4.40;;;;;;;12.98;100.00;99927.63;4911185;29;20544;-77
2022/10/03 04:13:10;;;;;;;9.15;4.43;;;;;;;13.00;100.00;99936.25;4909273;29;20044;-80
2022/10/03 04:15:52;;;;;;;7.18;4.28;;;;;;;12.99;100.00;99934.59;4911527;29;20036;-78
2022/10/03 04:18:58;;;;;;;8.02;4.30;;;;;;;12.98;100.00;99943.50;4907176;29;21646;-78
2022/10/03 04:21:26;;;;;;;7.40;4.07;;;;;;;12.95;100.00;99938.53;4908670;29;20156;-80
2022/10/03 04:24:04;;;;;;;5.97;4.15;;;;;;;12.98;100.00;99943.50;4950042;28;20038;-79
2022/10/03 04:26:44;;;;;;;8.70;4.82;;;;;;;12.97;100.00;99947.13;5010347;28;20466;-79
2022/10/03 04:29:28;;;;;;;12.45;4.63;;;;;;;12.91;100.00;99942.44;5013146;28;20121;-78
2022/10/03 04:32:08;;;;;;;9.85;4.18;;;;;;;12.92;100.00;99946.75;5009539;28;20061;-79
2022/10/03 04:35:16;;;;;;;7.07;4.32;;;;;;;12.90;100.00;99946.88;5013423;28;20038;-80
2022/10/03 04:38:32;;;;;;;9.07;4.75;;;;;;;12.79;100.00;99944.44;4985372;28;20050;-81
2022/10/03 04:41:15;;;;;;;6.57;4.35;;;;;;;12.79;100.00;99938.31;4953284;29;20035;-80
2022/10/03 04:44:18;;;;;;;11.13;4.60;;;;;;;12.73;100.00;99945.03;4953316;29;20058;-80
2022/10/03 04:47:05;;;;;;;5.47;4.20;;;;;;;12.72;100.00;99944.19;4949023;29;20239;-81
2022/10/03 04:49:48;;;;;;;7.30;4.50;;;;;;;12.71;100.00;99939.91;4949737;29;20114;-81
2022/10/03 04:52:38;;;;;;;8.23;4.50;;;;;;;12.73;100.00;99939.75;4952349;29;20523;-79
2022/10/03 04:55:32;;;;;;;8.05;4.85;;;;;;;12.67;100.00;99941.16;4952072;29;20098;-78
2022/10/03 04:58:24;;;;;;;6.38;4.70;;;;;;;12.64;100.00;99938.81;4948488;29;20404;-79
2022/10/03 05:00:59;;;;;;;6.70;4.60;;;;;;;12.66;100.00;99939.47;4952762;29;20102;-80
2022/10/03 05:04:00;;;;;;;16.70;5.18;;;;;;;12.65;100.00;99940.50;4942821;29;20135;-76
2022/10/03 05:06:37;;;;;;;8.68;5.28;;;;;;;12.31;100.00;99939.38;4948554;29;20039;-77
2022/10/03 05:09:15;;;;;;;13.45;5.13;;;;;;;12.34;100.00;99947.00;4950481;29;20081;-78
2022/10/03 05:11:58;;;;;;;9.93;4.65;;;;;;;12.21;100.00;99951.78;4979995;28;20068;-77
2022/10/03 05:14:36;;;;;;;5.93;4.53;;;;;;;12.28;100.00;99944.94;5012101;28;20447;-77
2022/10/03 05:17:20;;;;;;;7.30;4.93;;;;;;;12.23;100.00;99939.25;5005447;28;20040;-76
2022/10/03 05:20:09;;;;;;;6.68;5.30;;;;;;;12.26;100.00;99946.88;5008651;28;20144;-77
2022/10/03 05:22:49;;;;;;;9.63;5.13;;;;;;;12.29;100.00;99946.63;5009186;28;20386;-78
2022/10/03 05:25:40;;;;;;;5.78;4.43;;;;;;;12.37;100.00;99954.66;5010443;28;20100;-76
2022/10/03 05:28:14;;;;;;;;;;;;;;;12.39;100.00;99958.00;5005819;28;20045;-77
2022/10/03 05:30:53;;;;;;;8.82;5.43;;;;;;;12.43;100.00;99964.66;5007334;28;19997;-76
2022/10/03 05:33:48;;;;;;;9.75;5.40;;;;;;;12.42;100.00;99957.72;5003486;28;20569;-75
2022/10/03 05:36:24;;;;;;;9.73;5.85;;;;;;;12.22;100.00;99956.94;4997938;28;20046;-75
2022/10/03 05:39:21;;;;;;;5.82;4.95;;;;;;;12.14;100.00;99948.88;5002343;28;20053;-75
2022/10/03 05:42:09;;;;;;;11.40;5.88;;;;;;;12.19;100.00;99969.63;5003988;28;20102;-76
2022/10/03 05:44:45;;;;;;;8.07;4.72;;;;;;;12.26;100.00;99962.78;5003820;28;20103;-76
2022/10/03 05:50:40;;;;;;;9.63;5.65;;;;;;;12.22;100.00;99971.97;5005629;28;20046;-75
2022/10/03 05:53:43;;;;;;;8.95;5.20;;;;;;;12.10;100.00;99981.91;4998942;28;20111;-76
2022/10/03 05:56:46;;;;;;;10.05;5.53;;;;;;;12.16;100.00;99993.72;5007197;28;20064;-76
2022/10/03 05:59:42;;;;;;;5.70;5.10;;;;;;;12.03;100.00;99993.16;4314686;28;10000611;-74
2022/10/03 06:02:31;;;;;;;5.03;4.60;;;;;;;11.82;100.00;99991.53;5009248;28;20037;-74
2022/10/03 06:05:28;;;;;;;9.27;6.30;;;;;;;11.82;100.00;99996.81;5007709;28;20061;-74
2022/10/03 06:08:23;;;;;;;6.78;5.93;;;;;;;11.75;100.00;99995.72;5007335;28;20386;-75
2022/10/03 06:11:07;;;;;;;8.15;6.40;;;;;;;11.95;100.00;100001.00;5009807;28;20034;-75
2022/10/03 06:14:06;;;;;;;10.48;6.10;;;;;;;11.76;100.00;100002.66;5008293;28;20038;-76
2022/10/03 06:16:55;;;;;;;6.63;6.00;;;;;;;11.96;100.00;100007.97;5008764;28;20480;-76
2022/10/03 06:19:51;;;;;;;5.63;5.13;;;;;;;12.11;100.00;100017.13;5010998;28;20042;-76
2022/10/03 06:22:54;;;;;;;7.63;5.50;;;;;;;12.13;100.00;100018.66;5010074;28;20096;-75
2022/10/03 06:25:28;;;;;;;10.63;5.78;;;;;;;12.26;100.00;100010.41;5010566;28;20030;-74
2022/10/03 06:28:31;;;;;;;10.30;6.03;;;;;;;12.20;100.00;100010.97;5003048;28;20156;-76
2022/10/03 06:30:56;;;;;;;6.82;6.20;;;;;;;12.24;100.00;100020.31;5007261;28;20038;-75
2022/10/03 06:33:52;;;;;;;9.38;5.22;;;;;;;12.26;100.00;100020.97;5010488;28;20049;-75
2022/10/03 06:36:20;;;;;;;5.72;5.22;;;;;;;12.35;100.00;100020.16;4975003;28;20133;-75
2022/10/03 06:38:51;;;;;;;8.38;6.05;;;;;;;12.46;100.00;100019.97;5010840;28;20037;-76
2022/10/03 06:41:43;;;;;;;8.00;6.15;;;;;;;12.41;100.00;100019.56;5009878;28;20045;-75
2022/10/03 06:44:44;;;;;;;6.75;6.15;;;;;;;12.60;100.00;100019.53;4982374;28;20058;-76
2022/10/03 06:47:22;;;;;;;6.20;5.60;;;;;;;12.65;100.00;100022.56;5008796;28;20037;-76
2022/10/03 06:50:15;;;;;;;7.75;6.25;;;;;;;12.78;100.00;100018.75;5010394;28;20033;-76
2022/10/03 06:53:02;;;;;;;6.70;5.45;;;;;;;12.85;100.00;100019.81;5008953;28;20029;-75
2022/10/03 06:55:51;;;;;;;8.77;5.70;;;;;;;13.07;100.00;100022.13;5007322;28;20143;-75
2022/10/03 06:58:26;;;;;;;8.00;6.25;;;;;;;13.24;100.00;100039.91;5009437;28;20121;-76
2022/10/03 07:01:19;;;;;;;6.50;6.00;;;;;;;13.44;100.00;100032.66;5010911;28;20431;-76
2022/10/03 07:04:03;;;;;;;7.40;6.30;;;;;;;13.48;100.00;100042.84;5009166;28;20033;-75
2022/10/03 07:07:00;;;;;;;6.93;6.38;;;;;;;13.15;100.00;100040.78;5007179;28;20026;-75
2022/10/03 07:09:59;;;;;;;7.88;7.10;;;;;;;13.40;100.00;100040.09;5007040;28;20044;-75
2022/10/03 07:12:47;;;;;;;7.47;6.15;;;;;;;13.55;100.00;100052.84;5010348;28;20033;-76
2022/10/03 07:15:18;;;;;;;9.80;7.18;;;;;;;13.71;100.00;100053.00;5008750;28;20041;-76
2022/10/03 07:18:05;;;;;;;12.90;6.93;;;;;;;13.87;100.00;100053.16;5010338;28;20406;-75
2022/10/03 07:20:49;;;;;;;8.05;7.30;;;;;;;13.93;100.00;100039.28;5007094;28;20113;-75
2022/10/03 07:23:40;;;;;;;7.50;6.75;;;;;;;14.11;100.00;100045.41;5010147;28;20030;-75
2022/10/03 07:26:09;;;;;;;8.43;6.72;;;;;;;14.10;100.00;100051.69;5007557;28;20513;-76
2022/10/03 07:29:16;;;;;;;9.32;6.85;;;;;;;14.29;100.00;100054.19;5010147;28;20022;-75
2022/10/03 07:32:04;;;;;;;7.00;5.88;;;;;;;14.40;100.00;100054.94;4989658;28;20046;-76
2022/10/03 07:35:02;;;;;;;9.60;6.45;;;;;;;14.51;100.00;100065.31;5006725;28;20036;-75
2022/10/03 07:41:14;;;;;;;7.25;6.18;;;;;;;14.72;100.00;100081.75;5008048;28;20060;-77
2022/10/03 07:44:08;;;;;;;8.35;6.22;;;;;;;14.84;100.00;100075.19;5008184;28;20117;-75
2022/10/03 07:47:19;;;;;;;6.90;6.40;;;;;;;14.74;100.00;100077.91;5014365;28;20510;-75
2022/10/03 07:50:09;;;;;;;8.02;6.50;;;;;;;14.82;100.00;100079.81;5008145;28;20077;-76
2022/10/03 07:52:53;;;;;;;7.27;6.23;;;;;;;15.05;100.00;100083.59;5007304;28;20465;-75
2022/10/03 07:55:36;;;;;;;7.10;6.20;;;;;;;15.20;100.00;100085.66;5009686;28;20557;-75
2022/10/03 07:58:44;;;;;;;7.22;6.53;;;;;;;15.22;100.00;100088.97;5010252;28;20061;-76
2022/10/03 08:01:54;;;;;;;6.80;5.93;;;;;;;15.24;100.00;100087.00;5011385;28;20056;-77
2022/10/03 08:04:59;;;;;;;7.07;5.53;;;;;;;15.17;100.00;100094.78;5002137;28;20405;-76
2022/10/03 08:07:33;;;;;;;6.25;5.53;;;;;;;15.35;100.00;100095.53;5009831;28;20038;-75
2022/10/03 08:10:32;;;;;;;7.43;6.15;;;;;;;15.52;100.00;100096.44;4992598;28;20042;-75
2022/10/03 08:13:23;;;;;;;5.47;5.07;;;;;;;15.61;100.00;100099.97;5009681;28;20113;-75
2022/10/03 08:16:01;;;;;;;12.98;5.53;;;;;;;15.61;100.00;100103.44;5012728;28;20132;-76
2022/10/03 08:18:49;;;;;;;6.00;5.40;;;;;;;15.66;100.00;100098.50;5009903;28;20029;-76
2022/10/03 08:21:52;;;;;;;6.53;5.15;;;;;;;15.74;100.00;100106.47;4983447;28;20140;-76
2022/10/03 08:24:27;;;;;;;9.43;5.85;;;;;;;15.91;100.00;100102.84;5012097;28;20129;-76
2022/10/03 08:27:12;;;;;;;10.20;5.38;;;;;;;16.05;100.00;100101.38;5013230;28;20042;-76
2022/10/03 08:29:56;;;;;;;7.05;4.90;;;;;;;16.19;100.00;100105.22;5010870;28;20447;-76
2022/10/03 08:32:27;;;;;;;4.80;4.30;;;;;;;16.26;100.00;100106.22;5012922;28;20033;-76
2022/10/03 08:35:11;;;;;;;9.43;4.80;;;;;;;16.36;100.00;100112.22;5012690;28;20038;-76
2022/10/03 08:37:48;;;;;;;7.00;4.95;;;;;;;16.38;100.00;100105.72;5010544;28;20100;-75
2022/10/03 08:40:55;;;;;;;6.22;4.03;;;;;;;16.41;100.00;100109.91;5012479;28;20113;-76
2022/10/03 08:43:41;;;;;;;5.63;4.18;;;;;;;16.55;100.00;100122.53;5012326;28;20060;-76
2022/10/03 08:46:49;;;;;;;6.88;4.40;;;;;;;16.69;100.00;100119.22;5010170;28;20087;-76
2022/10/03 08:49:45;;;;;;;7.57;3.45;;;;;;;16.78;100.00;100125.41;4999126;28;20058;-76
2022/10/03 08:52:20;;;;;;;4.78;3.28;;;;;;;16.83;100.00;100131.06;5010747;28;20081;-75
2022/10/03 08:55:32;;;;;;;6.22;3.28;;;;;;;16.93;100.00;100130.84;5012723;28;20383;-76
2022/10/03 08:58:10;;;;;;;5.93;3.15;;;;;;;17.00;100.00;100123.84;4980920;28;20049;-76
2022/10/03 09:00:42;;;;;;;5.03;3.33;;;;;;;17.05;100.00;100126.84;5010414;28;20095;-75
2022/10/03 09:03:30;;;;;;;4.32;2.45;;;;;;;17.15;100.00;100124.78;5012121;28;20513;-76
2022/10/03 09:06:23;;;;;;;6.88;3.22;;;;;;;17.21;100.00;100118.78;5008539;28;20030;-76
2022/10/03 09:08:51;;;;;;;5.28;3.40;;;;;;;17.27;100.00;100118.09;5010997;28;20036;-75
2022/10/03 09:12:04;;;;;;;7.28;3.35;;;;;;;17.34;100.00;100118.25;4990400;28;20041;-75
2022/10/03 09:15:04;;;;;;;4.90;3.45;;;;;;;17.46;100.00;100112.34;5000207;28;20038;-76
2022/10/03 09:17:48;;;;;;;6.90;3.53;;;;;;;17.47;100.00;100108.69;4993907;28;20045;-77
2022/10/03 09:20:51;;;;;;;7.28;3.97;;;;;;;17.52;100.00;100103.66;5009058;28;20328;-76
2022/10/03 09:23:44;;;;;;;6.95;3.75;;;;;;;17.59;100.00;100101.13;5004971;28;20054;-76
2022/10/03 09:26:10;;;;;;;3.92;3.20;;;;;;;17.67;100.00;100102.97;5009245;28;20072;-75
2022/10/03 09:29:11;;;;;;;7.38;3.80;;;;;;;17.76;100.00;100101.91;5008238;28;20057;-73
2022/10/03 09:31:55;;;;;;;5.93;3.20;;;;;;;17.83;100.00;100098.34;5005975;28;20038;-75
2022/10/03 09:34:48;;;;;;;5.85;3.40;;;;;;;17.94;100.00;100100.63;5011279;28;20041;-75
2022/10/03 09:37:13;;;;;;;4.30;3.30;;;;;;;17.96;100.00;100097.78;5010138;28;20761;-75
2022/10/03 09:40:03;;;;;;;8.70;4.50;;;;;;;18.02;100.00;100099.75;5011641;28;20033;-75
2022/10/03 09:42:52;;;;;;;10.40;3.42;;;;;;;18.09;100.00;100087.31;5008541;28;20042;-76
2022/10/03 09:45:45;;;;;;;6.68;3.33;;;;;;;18.17;100.00;100095.28;5010605;28;20544;-75
2022/10/03 09:48:11;;;;;;;8.75;3.47;;;;;;;18.23;100.00;100089.22;4991918;28;20040;-75
2022/10/03 09:51:24;;;;;;;6.28;3.28;;;;;;;18.34;100.00;100086.13;5011553;28;20041;-75
2022/10/03 09:54:04;;;;;;;8.80;4.32;;;;;;;18.44;100.00;100090.41;4955199;28;20066;-75
2022/10/03 09:56:43;;;;;;;7.10;4.15;;;;;;;18.49;100.00;100082.69;5008496;28;20470;-75
2022/10/03 09:59:33;;;;;;;8.90;3.90;;;;;;;18.56;100.00;100078.28;5011324;28;20466;-75
2022/10/03 10:02:22;;;;;;;6.07;3.33;;;;;;;18.60;100.00;100069.75;5007626;28;20124;-74
2022/10/03 10:04:50;;;;;;;6.00;3.40;;;;;;;18.65;100.00;100072.69;4960269;28;20467;-75
2022/10/03 10:07:54;;;;;;;7.05;3.75;;;;;;;18.71;100.00;100081.81;5010740;28;20237;-75
2022/10/03 10:10:36;;;;;;;5.75;3.25;;;;;;;18.79;100.00;100073.72;5011050;28;20042;-76
2022/10/03 10:13:14;;;;;;;3.88;3.17;;;;;;;18.83;100.00;100067.00;5007871;28;20052;-75
2022/10/03 10:16:01;;;;;;;5.68;3.25;;;;;;;18.88;100.00;100067.28;5011213;28;20030;-75
2022/10/03 10:18:30;;;;;;;4.55;3.03;;;;;;;18.95;100.00;100062.84;4989203;28;20037;-75
2022/10/03 10:21:10;;;;;;;4.05;2.67;;;;;;;18.97;100.00;100059.97;5006857;28;20387;-75
2022/10/03 10:23:42;;;;;;;5.63;2.70;;;;;;;19.03;100.00;100049.38;5008950;28;20393;-75
2022/10/03 10:26:16;;;;;;;3.75;2.65;;;;;;;19.07;100.00;100045.34;5011050;28;20044;-75
2022/10/03 10:29:02;;;;;;;8.48;3.00;;;;;;;19.13;100.00;100049.09;5011042;28;20048;-75
2022/10/03 10:31:51;;;;;;;5.70;2.75;;;;;;;19.20;100.00;100050.03;5007157;28;20049;-76
2022/10/03 10:34:35;;;;;;;4.80;3.05;;;;;;;19.24;100.00;100051.31;5009513;28;20607;-75
2022/10/03 10:37:31;;;;;;;4.43;2.67;;;;;;;19.29;100.00;100048.91;4989813;28;20371;-76
2022/10/03 10:40:36;;;;;;;5.88;2.53;;;;;;;19.40;100.00;100044.91;5007198;28;20061;-75
2022/10/03 10:43:16;;;;;;;9.98;2.92;;;;;;;19.44;100.00;100041.66;5007401;28;20491;-75
2022/10/03 10:45:47;;;;;;;;;;;;;;;19.52;100.00;100038.09;5011234;28;20030;-75
2022/10/03 10:48:30;;;;;;;4.50;2.47;;;;;;;19.55;100.00;100037.72;5010342;28;19932;-75
2022/10/03 10:51:04;;;;;;;3.95;2.92;;;;;;;19.61;100.00;100042.31;5006488;28;20030;-75
2022/10/03 10:54:06;;;;;;;4.68;2.53;;;;;;;19.74;100.00;100041.59;5007174;28;20092;-75
2022/10/03 10:57:13;;;;;;;6.85;2.72;;;;;;;19.77;100.00;100036.72;5003843;28;20042;-75
2022/10/03 10:59:47;;;;;;;3.92;2.40;;;;;;;19.86;99.64;100027.53;5008353;28;20033;-75
2022/10/03 11:02:34;;;;;;;8.57;3.08;;;;;;;19.98;97.89;100020.63;5010079;28;20464;-75
2022/10/03 11:05:35;;;;;;;3.53;2.70;;;;;;;20.20;94.80;100026.00;5006786;28;20034;-77
2022/10/03 11:08:44;;;;;;;5.43;2.45;;;;;;;20.33;93.84;100020.75;5006753;28;20151;-75
2022/10/03 11:11:30;;;;;;;6.38;2.25;;;;;;;20.44;94.43;100017.53;5008269;28;20042;-74
2022/10/03 11:14:37;;;;;;;2.67;1.92;;;;;;;20.55;94.13;100014.34;5006655;28;20092;-76
2022/10/03 11:17:14;;;;;;;2.30;2.08;;;;;;;20.69;92.60;100004.50;4989704;28;20033;-76
2022/10/03 11:19:55;;;;;;;3.78;2.00;;;;;;;20.78;90.76;100001.50;5012250;28;20057;-76
2022/10/03 11:22:38;;;;;;;3.00;1.80;;;;;;;20.92;90.14;100007.72;5009583;28;20893;-80
2022/10/03 11:25:04;;;;;;;4.53;1.98;;;;;;;21.04;89.73;100013.38;5007515;28;20037;-75
2022/10/03 11:27:55;;;;;;;4.47;2.60;;;;;;;21.21;86.07;100006.66;5011015;28;20135;-79
2022/10/03 11:31:22;;;;;;;3.38;1.80;;;;;;;21.16;87.51;100001.91;5007311;28;20096;-79
2022/10/03 11:33:59;;;;;;;3.42;1.77;;;;;;;21.24;86.43;99998.22;4950566;28;20493;-76
2022/10/03 11:36:31;;;;;;;4.35;1.90;;;;;;;21.24;86.91;100003.59;5009304;28;20045;-79
2022/10/03 11:39:14;;;;;;;3.55;1.60;;;;;;;21.22;86.17;99995.72;5008598;28;20084;-79
2022/10/03 11:42:00;;;;;;;5.28;1.73;;;;;;;21.29;86.93;99989.56;5009125;28;20042;-78
2022/10/03 11:44:38;;;;;;;5.32;1.77;;;;;;;21.42;85.95;99985.06;5008016;28;20045;-75
2022/10/03 11:47:42;;;;;;;6.28;2.00;;;;;;;21.56;85.71;99984.06;5008994;28;20038;-77
2022/10/03 11:50:28;;;;;;;2.67;2.13;;;;;;;21.72;83.92;99984.72;5006383;28;20034;-76
2022/10/03 11:53:18;;;;;;;4.95;1.80;;;;;;;21.80;84.69;99981.81;5008285;28;20037;-78
2022/10/03 11:55:58;;;;;;;3.23;1.53;;;;;;;21.90;84.21;99977.72;5008234;28;20065;-78
2022/10/03 11:59:01;;;;;;;2.35;1.70;;;;;;;22.07;84.51;99972.78;5005756;28;20291;-79
2022/10/03 12:01:33;;;;;;;4.60;1.80;;;;;;;22.27;83.02;99978.97;5010580;28;20061;-77
2022/10/03 12:04:21;;;;;;;4.15;1.60;;;;;;;22.39;80.69;99971.94;4991832;28;20053;-80
2022/10/03 12:09:46;;;;;;;4.65;1.60;;;;;;;22.66;79.75;99966.50;5009010;28;20034;-77
2022/10/03 12:12:28;;;;;;;6.22;1.65;;;;;;;22.79;79.70;99963.81;5008947;28;20121;-78
2022/10/03 12:15:04;;;;;;;4.78;1.52;;;;;;;23.02;78.57;99961.47;5007972;28;20509;-77
2022/10/03 12:17:34;;;;;;;3.47;1.48;;;;;;;23.11;79.56;99960.16;5008682;28;20047;-78
2022/10/03 12:20:14;;;;;;;2.50;1.40;;;;;;;23.22;77.96;99959.50;5007184;28;20080;-78
2022/10/03 12:22:50;;;;;;;1.27;1.07;;;;;;;23.32;77.61;99958.22;5007083;28;20030;-76
2022/10/03 12:25:29;;;;;;;2.42;1.88;;;;;;;23.44;76.53;99953.78;5007322;28;20044;-78
2022/10/03 12:28:04;;;;;;;3.88;1.52;;;;;;;23.59;76.49;99948.94;5006375;28;20065;-79
2022/10/03 12:30:46;;;;;;;1.67;1.20;;;;;;;23.68;74.96;99944.94;5009042;28;20402;-78
2022/10/03 12:33:28;;;;;;;1.95;1.02;;;;;;;23.81;74.12;99949.41;4990836;28;20030;-78
2022/10/03 12:36:03;;;;;;;1.40;1.20;;;;;;;23.91;74.32;99947.91;4990276;28;20475;-76
2022/10/03 12:38:36;;;;;;;1.52;1.30;;;;;;;24.04;73.37;99939.69;5002210;28;20438;-79
2022/10/03 12:41:02;;;;;;;1.83;1.20;;;;;;;24.15;73.53;99945.41;4994516;28;20879;-75
2022/10/03 12:43:49;;;;;;;3.33;1.10;;;;;;;24.23;71.26;99937.88;4999923;28;20022;-78
2022/10/03 12:46:43;;;;;;;2.15;1.10;;;;;;;24.34;70.28;99937.16;5003563;28;20429;-76
2022/10/03 12:49:51;;;;;;;3.25;1.10;;;;;;;24.50;69.13;99926.84;4999688;28;20434;-75
2022/10/03 12:52:32;;;;;;;2.00;1.20;;;;;;;24.66;68.54;99927.06;4982489;28;20060;-76
2022/10/03 12:55:04;;;;;;;2.67;1.30;;;;;;;24.69;67.10;99921.19;4999304;28;20041;-74
2022/10/03 12:57:52;;;;;;;4.13;1.25;;;;;;;24.76;66.53;99921.97;4990793;28;20041;-75
2022/10/03 13:00:40;;;;;;;2.47;1.17;;;;;;;24.78;68.30;99919.88;5000998;28;20068;-77
2022/10/03 13:03:16;;;;;;;4.57;1.30;;;;;;;24.73;68.91;99921.59;4999760;28;20078;-77
2022/10/03 13:06:04;;;;;;;2.33;0.93;;;;;;;24.63;69.57;99910.47;5002203;28;20430;-78
2022/10/03 13:08:58;;;;;;;1.55;1.00;;;;;;;24.66;68.36;99901.94;4998517;28;20066;-77